메인 페이지
METAR-TAF:

METAR-TAF

공항 :

인디라 간디 국제공항

뉴델리, 인도

위도: 28-34N, 경도: 077-07E, 고도: 220m

현재 날씨관측

예보는 55분 전, 23:30시(UTC)에 발표되었습니다.
4kt
온도 27°C
습도 42%
기압 1006 hPa
시정: 3000m
고도 3000ft 상공 구름 조금
고도 9000ft 상공 구름 보통
연무,

METAR: VIDP 182330Z 27004KT 3000 HZ FEW030 SCT090 27/13 Q1006 NOSIG

시각: 05:55 (00:25 UTC)

예보

예보는 1 시간 25분 전, 23:00시(UTC)에 발표되었습니다.
예보 대상 시간: 19일 00시부터 20일 06시까지 (UTC)
6kt
시정: 2000m
고도 3500ft 상공 구름 조금
고도 10000ft 상공 구름 보통
연무
전환 중
19일 04시부터 19일 06시까지 (UTC)
8kt
시정: 4000m
고도 10000ft 상공 구름 조금
연무
일시적
19일 10시부터 19일 14시까지 (UTC)
북서15kt, 순간 최대 풍속 25kt
시정: 1500m
고도 3000ft 상공 구름 보통
고도 3500ft 상공 구름 조금, 적란운.
고도 10000ft 상공 구름 많음
뇌우, 비
전환 중
19일 18시부터 19일 20시까지 (UTC)
서북서5kt
시정: 3000m
고도 3500ft 상공 구름 조금
고도 10000ft 상공 구름 보통
연무
전환 중
20일 00시부터 20일 02시까지 (UTC)
여러 방향의 바람 2kt
시정: 2000m
연무
전환 중
20일 04시부터 20일 06시까지 (UTC)
서북서5kt
시정: 3000m
연무,

TAF: VIDP 182300Z 1900/2006 27006KT 2000 HZ FEW035 SCT100 BECMG 1904/1906 27008KT 4000 HZ FEW100 TEMPO 1910/1914 32015G25KT 1500 TSRA SCT030 FEW035CB BKN100 BECMG 1918/1920 30005KT 3000 HZ FEW035 SCT100 BECMG 2000/2002 VRB02KT 2000 HZ BECMG 2004/2006 30005KT 3000 HZ NSC

4,000개 이상의 공항 관측 자료 및 예보 (METAR 및 TAF 보고).

지도상에서 검색 가능한 기상관측소가 노란 점과 빨간 점으로 표시되어 있습니다.

기상관측소 명을 보려면 표시 위로 마우스를 이동하세요.

날씨 관측과 예보를 보려면 클릭하세요.

지도 변경 : 확대하려면 엑스 표시가 있는 녹색 버튼, 축소하려면 빼기 표시가 있는 녹색 버튼, 다음 페이지의 지도를 보려면 녹색 화살표를 클릭하세요.


METAR-TAF: